createdAt,value
2023-04-07T03:00:29.709Z,6.00
2023-04-07T03:03:01.805Z,5.90
2023-04-07T03:05:29.199Z,6.00
2023-04-07T03:07:56.433Z,6.00
2023-04-07T03:10:23.820Z,5.90
2023-04-07T03:12:53.610Z,5.90
2023-04-07T03:15:20.951Z,6.00
2023-04-07T03:17:48.218Z,6.00
2023-04-07T03:20:15.792Z,6.10
2023-04-07T03:22:44.501Z,6.00
2023-04-07T03:25:11.937Z,6.00
2023-04-07T03:27:39.183Z,5.90
2023-04-07T03:30:07.079Z,5.90
2023-04-07T03:32:34.346Z,6.00
2023-04-07T03:35:01.576Z,5.90
2023-04-07T03:37:28.827Z,5.80
2023-04-07T03:39:56.396Z,5.60
2023-04-07T03:42:23.622Z,5.60
2023-04-07T03:44:50.827Z,5.70
2023-04-07T03:47:18.080Z,5.80
2023-04-07T03:49:45.251Z,5.80
2023-04-07T03:52:12.497Z,5.90
2023-04-07T03:54:39.671Z,6.00
2023-04-07T03:57:07.181Z,5.90
2023-04-07T03:59:34.389Z,5.80
2023-04-07T04:02:01.786Z,5.80
2023-04-07T04:04:29.097Z,5.80
2023-04-07T04:06:56.358Z,5.80
2023-04-07T04:09:23.599Z,5.70
2023-04-07T04:11:51.180Z,5.80
2023-04-07T04:14:18.391Z,5.90
2023-04-07T04:16:45.782Z,5.90
2023-04-07T04:19:12.947Z,5.80
2023-04-07T04:21:40.400Z,5.90
2023-04-07T04:24:07.682Z,5.90
2023-04-07T04:26:34.921Z,5.90
2023-04-07T04:29:03.349Z,5.80
2023-04-07T04:31:30.867Z,5.80
2023-04-07T04:33:58.168Z,5.80
2023-04-07T04:36:26.298Z,5.70
2023-04-07T04:38:53.501Z,5.70
2023-04-07T04:41:20.940Z,5.70
2023-04-07T04:43:48.160Z,5.90
2023-04-07T04:46:15.549Z,5.80
2023-04-07T04:48:42.735Z,6.00
2023-04-07T04:51:09.941Z,6.00
2023-04-07T04:53:37.122Z,6.00
2023-04-07T04:56:04.527Z,6.10
2023-04-07T04:58:32.304Z,6.10
2023-04-07T05:01:00.487Z,6.10
2023-04-07T05:03:29.264Z,6.10
2023-04-07T05:05:56.785Z,6.10
2023-04-07T05:08:24.348Z,6.10
2023-04-07T05:10:51.560Z,6.10
2023-04-07T05:13:18.774Z,6.10
2023-04-07T05:15:46.163Z,6.00
2023-04-07T05:18:13.800Z,6.00
2023-04-07T05:20:41.046Z,6.00
2023-04-07T05:23:08.302Z,6.00
2023-04-07T05:25:35.893Z,6.00
2023-04-07T05:28:03.227Z,5.90
2023-04-07T05:30:30.474Z,5.90
2023-04-07T05:32:57.700Z,6.00
2023-04-07T05:35:24.982Z,6.10
2023-04-07T05:37:52.193Z,6.10
2023-04-07T05:40:19.491Z,6.30
2023-04-07T05:42:46.727Z,6.20
2023-04-07T05:45:13.998Z,6.30
2023-04-07T05:47:41.502Z,6.30
2023-04-07T05:50:09.271Z,6.30
2023-04-07T05:52:36.608Z,6.30
2023-04-07T05:55:04.169Z,6.20
2023-04-07T05:57:31.365Z,6.30
2023-04-07T05:59:58.537Z,6.40
2023-04-07T06:02:26.136Z,6.40
2023-04-07T06:04:53.460Z,6.40
2023-04-07T06:07:20.828Z,6.50
2023-04-07T06:09:48.107Z,6.60
2023-04-07T06:12:16.957Z,6.70
2023-04-07T06:14:46.929Z,6.70
2023-04-07T06:17:14.156Z,6.60
2023-04-07T06:19:41.585Z,6.60
2023-04-07T06:22:08.865Z,6.40
2023-04-07T06:24:36.103Z,6.40
2023-04-07T06:27:03.930Z,6.60
2023-04-07T06:29:32.746Z,6.70
2023-04-07T06:32:00.584Z,6.80
2023-04-07T06:34:27.897Z,7.20
2023-04-07T06:36:57.313Z,7.40
2023-04-07T06:39:27.195Z,7.60
2023-04-07T06:41:54.475Z,7.90
2023-04-07T06:44:21.773Z,8.10
2023-04-07T06:46:53.069Z,8.20
2023-04-07T06:49:20.668Z,8.20
2023-04-07T06:51:47.930Z,8.40
2023-04-07T06:54:15.546Z,8.90
2023-04-07T06:56:43.789Z,9.80
2023-04-07T06:59:11.193Z,10.40
2023-04-07T07:01:38.486Z,11.40
2023-04-07T07:04:06.652Z,11.70
2023-04-07T07:06:34.271Z,11.50
2023-04-07T07:09:03.215Z,12.50
2023-04-07T07:11:30.794Z,12.80
2023-04-07T07:13:58.005Z,13.10
2023-04-07T07:16:25.581Z,13.40
2023-04-07T07:18:52.787Z,13.40
2023-04-07T07:21:21.526Z,13.80
2023-04-07T07:23:48.935Z,14.60
2023-04-07T07:26:16.530Z,14.60
2023-04-07T07:28:43.798Z,14.00
2023-04-07T07:31:13.327Z,14.20
2023-04-07T07:33:41.522Z,14.30
2023-04-07T07:36:09.021Z,14.70
2023-04-07T07:38:37.677Z,15.50
2023-04-07T07:41:07.110Z,16.00
2023-04-07T07:43:34.456Z,16.20
2023-04-07T07:46:01.782Z,15.70
2023-04-07T07:48:29.190Z,15.60
2023-04-07T07:50:57.037Z,15.10
2023-04-07T07:53:24.476Z,16.30
2023-04-07T07:55:51.695Z,17.80
2023-04-07T07:58:18.991Z,17.80
2023-04-07T08:00:46.395Z,17.90
2023-04-07T08:03:13.764Z,18.20
2023-04-07T08:05:41.184Z,18.40
2023-04-07T08:08:08.576Z,18.40
2023-04-07T08:10:37.080Z,18.60
2023-04-07T08:13:05.241Z,19.30
2023-04-07T08:15:32.537Z,19.50
2023-04-07T08:18:00.520Z,19.50
2023-04-07T08:20:27.930Z,18.70
2023-04-07T08:22:55.197Z,18.70
2023-04-07T08:25:22.465Z,18.60
2023-04-07T08:27:49.735Z,18.30
2023-04-07T08:30:17.261Z,18.00
2023-04-07T08:32:45.357Z,17.70
2023-04-07T08:35:12.956Z,18.50
2023-04-07T08:37:41.419Z,18.30
2023-04-07T08:40:09.415Z,18.30
2023-04-07T08:42:41.410Z,19.00
2023-04-07T08:45:10.042Z,19.40
2023-04-07T08:47:38.010Z,19.60
2023-04-07T08:50:10.852Z,19.60
2023-04-07T08:52:50.691Z,19.40
2023-04-07T08:55:17.910Z,19.50
2023-04-07T08:57:46.629Z,19.40
2023-04-07T09:00:14.743Z,18.60
2023-04-07T09:02:45.673Z,18.00
2023-04-07T09:05:14.699Z,17.90
2023-04-07T09:07:45.167Z,17.70
2023-04-07T09:10:12.445Z,17.60
2023-04-07T09:12:39.968Z,17.20
2023-04-07T09:15:07.918Z,17.60
2023-04-07T09:17:35.426Z,17.40
2023-04-07T09:20:03.296Z,17.00
2023-04-07T09:22:42.462Z,16.60
2023-04-07T09:25:13.988Z,16.90
2023-04-07T09:27:41.648Z,17.00
2023-04-07T09:30:18.050Z,16.70
2023-04-07T09:32:45.353Z,16.60
2023-04-07T09:35:12.667Z,16.10
2023-04-07T09:37:39.964Z,16.20
2023-04-07T09:40:08.089Z,16.20
2023-04-07T09:42:37.929Z,16.20
2023-04-07T09:45:05.648Z,16.10
2023-04-07T09:47:33.275Z,16.00
2023-04-07T09:50:06.697Z,15.50
2023-04-07T09:52:53.897Z,15.50
2023-04-07T09:55:22.872Z,15.60
2023-04-07T09:57:55.545Z,15.60
2023-04-07T10:00:23.496Z,15.20
2023-04-07T10:02:51.601Z,14.80
2023-04-07T10:05:21.512Z,14.30
2023-04-07T10:07:49.291Z,13.80
2023-04-07T10:10:16.724Z,13.50
2023-04-07T10:12:45.358Z,13.30
2023-04-07T10:15:16.282Z,13.20
2023-04-07T10:17:50.047Z,12.90
2023-04-07T10:20:23.017Z,12.80
2023-04-07T10:22:53.857Z,12.60
2023-04-07T10:25:24.636Z,12.60
2023-04-07T10:28:00.386Z,12.40
2023-04-07T10:30:33.601Z,12.40
2023-04-07T10:33:01.279Z,12.30
2023-04-07T10:35:29.865Z,12.10
2023-04-07T10:38:14.080Z,12.10
2023-04-07T10:40:42.921Z,12.10
2023-04-07T10:43:14.901Z,12.30
2023-04-07T10:45:59.328Z,12.00
2023-04-07T10:48:28.577Z,12.00
2023-04-07T10:51:05.270Z,11.90
2023-04-07T10:53:32.509Z,11.90
2023-04-07T10:55:59.931Z,11.90
2023-04-07T10:58:31.182Z,11.90
2023-04-07T11:01:04.758Z,12.00
2023-04-07T11:03:53.796Z,12.10
2023-04-07T11:06:21.297Z,12.50
2023-04-07T11:08:50.646Z,12.50
2023-04-07T11:11:37.316Z,12.50
2023-04-07T11:14:04.921Z,12.40
2023-04-07T11:16:41.009Z,12.30
2023-04-07T11:19:08.520Z,12.30
2023-04-07T11:21:36.744Z,12.50
2023-04-07T11:24:04.303Z,12.40
2023-04-07T11:26:38.220Z,12.60
2023-04-07T11:29:05.532Z,12.60
2023-04-07T11:31:33.218Z,12.70
2023-04-07T11:34:02.170Z,12.90
2023-04-07T11:36:40.674Z,13.30
2023-04-07T11:39:31.157Z,13.60
2023-04-07T11:41:58.378Z,13.80
2023-04-07T11:44:26.785Z,13.50
2023-04-07T11:47:02.152Z,13.40
2023-04-07T11:49:29.720Z,13.30
2023-04-07T11:52:07.254Z,13.60
2023-04-07T11:54:47.525Z,13.60
2023-04-07T11:57:15.041Z,13.60
2023-04-07T11:59:42.316Z,13.40
2023-04-07T12:02:10.054Z,13.20
2023-04-07T12:04:40.253Z,12.90
2023-04-07T12:07:09.536Z,12.80
2023-04-07T12:09:37.844Z,12.60
2023-04-07T12:12:07.920Z,12.60
2023-04-07T12:14:36.080Z,12.70
2023-04-07T12:17:03.842Z,12.80
2023-04-07T12:19:36.238Z,12.70
2023-04-07T12:22:03.897Z,12.60
2023-04-07T12:24:32.495Z,12.60
2023-04-07T12:26:59.990Z,12.80
2023-04-07T12:29:27.905Z,12.80
2023-04-07T12:31:56.278Z,12.80
2023-04-07T12:34:23.675Z,12.80
2023-04-07T12:36:51.683Z,12.60
2023-04-07T12:39:19.405Z,12.60
2023-04-07T12:41:47.768Z,12.50
2023-04-07T12:44:16.214Z,12.40
2023-04-07T12:46:43.521Z,12.00
2023-04-07T12:49:11.027Z,11.60
2023-04-07T12:51:40.051Z,11.30
2023-04-07T12:54:07.717Z,11.30
2023-04-07T12:56:34.941Z,11.40
2023-04-07T12:59:02.263Z,11.50
2023-04-07T13:01:29.708Z,11.70
2023-04-07T13:03:57.132Z,11.70
2023-04-07T13:06:24.660Z,11.90
2023-04-07T13:08:51.938Z,12.20
2023-04-07T13:11:19.317Z,12.20
2023-04-07T13:13:47.158Z,12.40
2023-04-07T13:16:14.646Z,12.50
2023-04-07T13:18:42.353Z,12.60
2023-04-07T13:21:43.032Z,12.70
2023-04-07T13:23:57.904Z,12.90
2023-04-07T13:26:25.186Z,13.40
2023-04-07T13:28:52.412Z,13.20
2023-04-07T13:31:21.974Z,13.00
2023-04-07T13:33:49.946Z,13.10
2023-04-07T13:36:17.512Z,12.90
2023-04-07T13:38:44.790Z,12.90
2023-04-07T13:41:12.240Z,12.90
2023-04-07T13:43:39.499Z,12.90
2023-04-07T13:46:17.174Z,12.70
2023-04-07T13:48:52.194Z,12.60
2023-04-07T13:51:19.748Z,12.70
2023-04-07T13:53:47.854Z,12.80
2023-04-07T13:56:15.380Z,12.70
2023-04-07T13:58:42.837Z,12.70
2023-04-07T14:01:10.077Z,12.60
2023-04-07T14:03:37.459Z,12.50
2023-04-07T14:06:04.881Z,12.50
2023-04-07T14:08:32.079Z,12.50
2023-04-07T14:10:59.317Z,12.40
2023-04-07T14:13:27.146Z,12.40
2023-04-07T14:15:54.448Z,12.50
2023-04-07T14:18:23.502Z,12.40
2023-04-07T14:20:50.935Z,12.30
2023-04-07T14:23:30.077Z,12.20
2023-04-07T14:26:01.632Z,12.10
2023-04-07T14:28:28.990Z,12.10
2023-04-07T14:30:56.298Z,12.10
2023-04-07T14:33:26.104Z,11.90
2023-04-07T14:35:53.396Z,11.90
2023-04-07T14:38:24.408Z,12.00
2023-04-07T14:40:52.698Z,11.90
2023-04-07T14:43:20.022Z,11.90
2023-04-07T14:45:47.251Z,12.00
2023-04-07T14:48:14.551Z,12.00
2023-04-07T14:50:41.816Z,11.90
2023-04-07T14:53:09.052Z,11.90
2023-04-07T14:55:36.461Z,11.80
2023-04-07T14:58:03.782Z,11.90
2023-04-07T15:00:31.103Z,11.90
2023-04-07T15:02:58.559Z,11.80
2023-04-07T15:05:27.997Z,11.70
2023-04-07T15:07:55.313Z,11.70
2023-04-07T15:10:22.585Z,11.70
2023-04-07T15:12:50.408Z,11.50
2023-04-07T15:15:18.421Z,11.50
2023-04-07T15:17:45.843Z,11.60
2023-04-07T15:20:13.575Z,11.60
2023-04-07T15:22:40.894Z,11.60
2023-04-07T15:25:08.693Z,11.60
2023-04-07T15:27:36.117Z,11.40
2023-04-07T15:30:03.769Z,11.50
2023-04-07T15:32:31.951Z,11.60
2023-04-07T15:34:59.359Z,11.60
2023-04-07T15:37:26.772Z,11.40
2023-04-07T15:39:54.012Z,11.50
2023-04-07T15:42:21.209Z,11.50
2023-04-07T15:44:48.441Z,11.50
2023-04-07T15:47:15.683Z,11.30
2023-04-07T15:49:43.499Z,11.30
2023-04-07T15:52:12.091Z,11.50
2023-04-07T15:54:39.326Z,11.70
2023-04-07T15:57:06.575Z,11.80
2023-04-07T15:59:36.027Z,12.00
2023-04-07T16:02:03.373Z,12.10
2023-04-07T16:04:30.724Z,12.00
2023-04-07T16:06:57.941Z,11.90
2023-04-07T16:09:25.890Z,11.90
2023-04-07T16:11:53.139Z,11.90
2023-04-07T16:14:20.637Z,11.60
2023-04-07T16:16:47.972Z,11.50
2023-04-07T16:19:15.262Z,11.50
2023-04-07T16:21:42.614Z,11.50
2023-04-07T16:24:09.882Z,11.40
2023-04-07T16:26:37.074Z,11.30
2023-04-07T16:29:04.347Z,11.10
2023-04-07T16:31:31.535Z,11.10
2023-04-07T16:33:58.717Z,11.10
2023-04-07T16:36:26.612Z,10.90
2023-04-07T16:38:53.933Z,10.80
2023-04-07T16:41:21.849Z,10.70
2023-04-07T16:43:49.209Z,10.80
2023-04-07T16:46:16.658Z,10.70
2023-04-07T16:48:43.901Z,10.60
2023-04-07T16:51:15.765Z,10.60
2023-04-07T16:53:42.946Z,10.50
2023-04-07T16:56:23.596Z,10.50
2023-04-07T16:58:51.555Z,10.40
2023-04-07T17:01:19.213Z,10.40
2023-04-07T17:03:48.925Z,10.40
2023-04-07T17:06:16.722Z,10.20
2023-04-07T17:08:44.061Z,10.00
2023-04-07T17:11:13.559Z,9.70
2023-04-07T17:13:40.894Z,9.50
2023-04-07T17:16:14.342Z,9.10
2023-04-07T17:18:41.862Z,8.80
2023-04-07T17:21:09.090Z,8.60
2023-04-07T17:23:36.297Z,8.50
2023-04-07T17:26:03.580Z,8.50
2023-04-07T17:28:31.023Z,8.50
2023-04-07T17:30:58.583Z,8.60
2023-04-07T17:33:26.143Z,8.70
2023-04-07T17:35:53.547Z,8.90
2023-04-07T17:38:20.911Z,8.80
2023-04-07T17:40:48.137Z,8.90
2023-04-07T17:43:15.786Z,8.90
2023-04-07T17:45:42.973Z,8.80
2023-04-07T17:48:12.150Z,8.80
2023-04-07T17:50:39.692Z,8.80
2023-04-07T17:53:07.768Z,8.80
2023-04-07T17:55:35.039Z,8.80
2023-04-07T17:58:02.311Z,8.80
2023-04-07T18:00:29.814Z,8.80
2023-04-07T18:02:57.624Z,8.90
2023-04-07T18:05:26.378Z,8.80
2023-04-07T18:07:54.890Z,8.70
2023-04-07T18:10:24.975Z,8.40
2023-04-07T18:12:52.502Z,8.40
2023-04-07T18:15:19.778Z,8.50
2023-04-07T18:17:49.072Z,8.60
2023-04-07T18:20:19.837Z,8.60
2023-04-07T18:22:53.307Z,8.60
2023-04-07T18:25:20.765Z,8.50
2023-04-07T18:27:48.073Z,8.40
2023-04-07T18:30:16.318Z,8.30
2023-04-07T18:32:44.265Z,8.40
2023-04-07T18:35:11.545Z,8.40
2023-04-07T18:37:38.736Z,8.20
2023-04-07T18:40:06.769Z,8.00
2023-04-07T18:42:34.018Z,8.00
2023-04-07T18:45:01.445Z,8.10
2023-04-07T18:47:31.517Z,8.10
2023-04-07T18:49:58.758Z,8.10
2023-04-07T18:52:26.780Z,8.00
2023-04-07T18:54:54.001Z,8.00
2023-04-07T18:57:21.417Z,7.90
2023-04-07T18:59:48.938Z,7.90
2023-04-07T19:02:16.598Z,8.00
2023-04-07T19:04:44.477Z,8.00
2023-04-07T19:07:11.778Z,8.00
2023-04-07T19:09:39.840Z,7.90
2023-04-07T19:12:07.062Z,7.70
2023-04-07T19:14:34.216Z,7.80
2023-04-07T19:17:01.464Z,7.50
2023-04-07T19:19:28.701Z,7.50
2023-04-07T19:21:55.999Z,7.50
2023-04-07T19:24:23.280Z,7.50
2023-04-07T19:26:51.553Z,7.50
2023-04-07T19:29:18.861Z,7.60
2023-04-07T19:31:46.194Z,7.60
2023-04-07T19:34:13.478Z,7.50
2023-04-07T19:36:40.817Z,7.50
2023-04-07T19:39:07.993Z,7.50
2023-04-07T19:41:35.173Z,7.40
2023-04-07T19:44:02.484Z,7.40
2023-04-07T19:46:29.826Z,7.40
2023-04-07T19:48:57.216Z,7.50
2023-04-07T19:51:24.459Z,7.50
2023-04-07T19:53:51.835Z,7.40
2023-04-07T19:56:19.020Z,7.40
2023-04-07T19:58:46.271Z,7.40
2023-04-07T20:01:17.824Z,7.60
2023-04-07T20:03:46.356Z,7.60
2023-04-07T20:06:15.117Z,7.60
2023-04-07T20:08:42.722Z,7.60
2023-04-07T20:11:12.671Z,7.60
2023-04-07T20:13:41.854Z,7.60
2023-04-07T20:16:09.845Z,7.60
2023-04-07T20:18:37.227Z,7.60
2023-04-07T20:21:07.425Z,7.50
2023-04-07T20:23:34.702Z,7.40
2023-04-07T20:26:02.395Z,7.50
2023-04-07T20:28:30.453Z,7.50
2023-04-07T20:30:57.701Z,7.50
2023-04-07T20:33:24.937Z,7.60
2023-04-07T20:35:52.898Z,7.70
2023-04-07T20:38:20.331Z,7.70
2023-04-07T20:40:47.574Z,7.50
2023-04-07T20:43:18.064Z,7.50
2023-04-07T20:45:47.436Z,7.10
2023-04-07T20:48:16.782Z,7.10
2023-04-07T20:50:44.781Z,7.00
2023-04-07T20:53:12.021Z,6.90
2023-04-07T20:55:39.250Z,6.80
2023-04-07T20:58:06.529Z,6.90
